Higgins, Oklahoma
Current Conditions -  °F | °C
As of 6:53 AM on Saturday 01 Nov 2014 (Local Time) from KMLC Reporting Station
Scattered Clouds Scattered Clouds  
Wind Chill: 27°   Ceiling: Unl
Heat Index: 32°   Visibility: 10mi
Dew Point: 26°   Wind: 5mph
Humidity: 79%   Direction: NA
Pressure: 30.43"   Gusts: NA
Location:  34.8806°N, 95.3086°W
Report Text: KMLC 011153Z AUTO VRB04KT 10SM SCT080 SCT100 00/M03 A3043 RMK AO2 SLP308 T00001033 10050 21011 51006
Loading
Personal Weather Stations






























Interactive Weather Map
Tropical Storm Tracking
New forecast layout! Learn more

10-Day Weather Forecast

Advertisements
Track Severe Weather on mobile